YYC weather

Calgary International Airport
Calgary, Alberta, Canada

Public forecast

Using degrees Celsius for public forecast. Weather courtesy of forecast.io.

Current aviation weather report (METAR) for Calgary International Airport

Retrieved 2019/11/19 17:42 UTC (0 seconds ago):

CYYC 191742Z 08007KT 5/8SM R35L/P6000FT/D R29/6000FT/D R35R/6000FT/D -SN OVC006 M01/M02 A2978 RMK SN3SF5 SLP129

Aviation forecast (TAF) for Calgary International Airport

Retrieved 2019/11/19 15:40 UTC (2 hours ago):

TAF CYYC 191438Z 1915/2012 10007KT 1SM -SN BR VV004 TEMPO 1915/1920 3SM -SN OVC012 PROB30 1915/1920 1/2SM SHSN VV004 FM192000 03010KT 4SM -SN OVC012 TEMPO 1920/2004 1SM -SN VV006 FM200400 36006KT P6SM FEW006 SCT012 BKN025 TEMPO 2004/2012 2SM -SN BKN006 BKN012 OVC025 RMK NXT FCST BY 191800Z